Logan Cache Airport
KLGU : now visible

Airfield :











YOU CAN JOIN US ON...

 
LOGIN :

Register | Disclaimer

   EN    FR    IT 

 









Legend :    VFR   Marginal VFR   IFR   Intensive IFR   Very Intensive IFR
Visi :
Ceiling :
>= 8 km
>= 3000ft
5 to 8 km
1000 to 3000 ft
1500m to 5 km
500 to 1000 ft
800 to 1500m
200 to 500 ft
< 800m
< 200 ft
Symbols :   Thunderstorms  Fog  Heavy snow  Heavy precipitations  Wind > 20 kt






- Airport Elevation : 4457 ft


KLGU - Logan Cache

CURRENT METAR :
  • 071451Z AUTO 00000KT 10SM CLR A3002 RMK AO2 SLPNO 51021 $

EXPIRED METARs :
  • 071351Z AUTO 36003KT 10SM CLR A3000 RMK AO2 SLPNO $
  • 071251Z AUTO 13003KT 10SM CLR A2998 RMK AO2 SLPNO $

TAF KLGU
Valid from the 07 at 12:00 until the 08 at 12:00 UTC


071120Z 0712/0812 VRB04KT P6SM SKC
FM071800 29007KT P6SM SKC
FM080300 VRB04KT P6SM SKC
KZLC FIR / North America



MET'MAP, your aeronautical weather chart ! - Copyright ORBIFLY December 2007 - Disclaimer

ORBIFLY MET'MAP TEAM :

Programming & Development : Alexandra Zaïnal
Concept & original design : Baudouin d'Aumeries
Assistance for programming : Marc-Olivier Méhu
Technical & hardware support : Manuel Goepfert

Contact : metmap@orbifly.com




SOURCES & CREDITS :

   NOAA       Earth
Advisory